sensor_id;sensor_type;location;lat;lon;timestamp;P1;durP1;ratioP1;P2;durP2;ratioP2
70426;SDS011;57872;55.432;37.248;2024-03-02T00:03:37;50.38;;;23.30;;
70426;SDS011;57872;55.432;37.248;2024-03-02T00:08:55;53.60;;;21.90;;
70426;SDS011;57872;55.432;37.248;2024-03-02T00:13:58;51.33;;;22.57;;
70426;SDS011;57872;55.432;37.248;2024-03-02T00:19:03;51.13;;;21.63;;
70426;SDS011;57872;55.432;37.248;2024-03-02T00:24:52;52.17;;;21.70;;
70426;SDS011;57872;55.432;37.248;2024-03-02T00:30:12;50.60;;;21.67;;
70426;SDS011;57872;55.432;37.248;2024-03-02T00:36:03;50.08;;;21.88;;
70426;SDS011;57872;55.432;37.248;2024-03-02T00:41:08;47.20;;;19.97;;
70426;SDS011;57872;55.432;37.248;2024-03-02T00:46:19;52.80;;;23.23;;
70426;SDS011;57872;55.432;37.248;2024-03-02T00:51:21;50.93;;;20.33;;
70426;SDS011;57872;55.432;37.248;2024-03-02T00:56:26;53.50;;;22.40;;
70426;SDS011;57872;55.432;37.248;2024-03-02T01:01:28;53.85;;;22.70;;
70426;SDS011;57872;55.432;37.248;2024-03-02T01:06:37;51.83;;;21.90;;
70426;SDS011;57872;55.432;37.248;2024-03-02T01:11:48;53.45;;;22.27;;
70426;SDS011;57872;55.432;37.248;2024-03-02T01:17:04;54.60;;;21.53;;
70426;SDS011;57872;55.432;37.248;2024-03-02T01:22:55;54.47;;;21.77;;
70426;SDS011;57872;55.432;37.248;2024-03-02T01:28:35;67.75;;;27.58;;
70426;SDS011;57872;55.432;37.248;2024-03-02T01:33:46;57.63;;;23.65;;
70426;SDS011;57872;55.432;37.248;2024-03-02T01:38:48;58.43;;;23.43;;
70426;SDS011;57872;55.432;37.248;2024-03-02T01:43:49;52.30;;;22.43;;
70426;SDS011;57872;55.432;37.248;2024-03-02T01:48:50;58.45;;;25.42;;
70426;SDS011;57872;55.432;37.248;2024-03-02T01:53:51;63.90;;;24.97;;
70426;SDS011;57872;55.432;37.248;2024-03-02T01:58:53;62.67;;;24.10;;
70426;SDS011;57872;55.432;37.248;2024-03-02T02:03:54;59.87;;;26.40;;
70426;SDS011;57872;55.432;37.248;2024-03-02T02:09:02;68.80;;;28.60;;
70426;SDS011;57872;55.432;37.248;2024-03-02T02:14:33;58.67;;;25.87;;
70426;SDS011;57872;55.432;37.248;2024-03-02T02:19:58;61.13;;;26.60;;
70426;SDS011;57872;55.432;37.248;2024-03-02T02:25:21;60.77;;;26.87;;
70426;SDS011;57872;55.432;37.248;2024-03-02T02:30:59;51.43;;;22.73;;
70426;SDS011;57872;55.432;37.248;2024-03-02T02:36:31;53.47;;;24.03;;
70426;SDS011;57872;55.432;37.248;2024-03-02T02:41:56;57.42;;;23.65;;
70426;SDS011;57872;55.432;37.248;2024-03-02T02:47:00;52.20;;;23.20;;
70426;SDS011;57872;55.432;37.248;2024-03-02T02:52:11;53.65;;;23.67;;
70426;SDS011;57872;55.432;37.248;2024-03-02T02:57:18;59.67;;;25.80;;
70426;SDS011;57872;55.432;37.248;2024-03-02T03:02:27;69.27;;;28.17;;
70426;SDS011;57872;55.432;37.248;2024-03-02T03:07:36;49.83;;;21.73;;
70426;SDS011;57872;55.432;37.248;2024-03-02T03:13:01;52.13;;;21.57;;
70426;SDS011;57872;55.432;37.248;2024-03-02T03:18:05;48.17;;;20.67;;
70426;SDS011;57872;55.432;37.248;2024-03-02T03:23:08;49.25;;;22.00;;
70426;SDS011;57872;55.432;37.248;2024-03-02T03:28:09;54.30;;;23.10;;
70426;SDS011;57872;55.432;37.248;2024-03-02T03:33:10;49.80;;;22.30;;
70426;SDS011;57872;55.432;37.248;2024-03-02T03:38:14;54.85;;;23.33;;
70426;SDS011;57872;55.432;37.248;2024-03-02T03:43:15;55.67;;;24.73;;
70426;SDS011;57872;55.432;37.248;2024-03-02T03:48:17;57.73;;;25.70;;
70426;SDS011;57872;55.432;37.248;2024-03-02T03:53:19;63.73;;;28.50;;
70426;SDS011;57872;55.432;37.248;2024-03-02T03:58:20;69.27;;;28.30;;
70426;SDS011;57872;55.432;37.248;2024-03-02T04:03:22;75.77;;;30.00;;
70426;SDS011;57872;55.432;37.248;2024-03-02T04:08:38;67.73;;;28.43;;
70426;SDS011;57872;55.432;37.248;2024-03-02T04:13:42;67.93;;;29.43;;
70426;SDS011;57872;55.432;37.248;2024-03-02T04:18:47;61.43;;;26.53;;
70426;SDS011;57872;55.432;37.248;2024-03-02T04:23:49;57.43;;;25.80;;
70426;SDS011;57872;55.432;37.248;2024-03-02T04:28:54;64.53;;;28.13;;
70426;SDS011;57872;55.432;37.248;2024-03-02T04:33:55;63.07;;;27.60;;
70426;SDS011;57872;55.432;37.248;2024-03-02T04:38:56;64.40;;;27.50;;
70426;SDS011;57872;55.432;37.248;2024-03-02T04:44:01;59.43;;;26.23;;
70426;SDS011;57872;55.432;37.248;2024-03-02T04:49:02;59.10;;;28.63;;
70426;SDS011;57872;55.432;37.248;2024-03-02T04:54:04;58.00;;;27.23;;
70426;SDS011;57872;55.432;37.248;2024-03-02T04:59:05;67.23;;;28.87;;
70426;SDS011;57872;55.432;37.248;2024-03-02T05:04:07;62.27;;;29.23;;
70426;SDS011;57872;55.432;37.248;2024-03-02T05:09:18;81.80;;;39.63;;
70426;SDS011;57872;55.432;37.248;2024-03-02T05:14:19;78.27;;;31.20;;
70426;SDS011;57872;55.432;37.248;2024-03-02T05:19:21;71.77;;;31.27;;
70426;SDS011;57872;55.432;37.248;2024-03-02T05:24:24;69.85;;;31.23;;
70426;SDS011;57872;55.432;37.248;2024-03-02T05:29:29;67.40;;;29.67;;
70426;SDS011;57872;55.432;37.248;2024-03-02T05:34:30;68.35;;;30.90;;
70426;SDS011;57872;55.432;37.248;2024-03-02T05:39:33;67.93;;;31.80;;
70426;SDS011;57872;55.432;37.248;2024-03-02T05:44:35;68.28;;;31.15;;
70426;SDS011;57872;55.432;37.248;2024-03-02T05:49:37;70.72;;;30.83;;
70426;SDS011;57872;55.432;37.248;2024-03-02T05:54:39;68.53;;;30.70;;
70426;SDS011;57872;55.432;37.248;2024-03-02T05:59:40;73.93;;;29.80;;
70426;SDS011;57872;55.432;37.248;2024-03-02T06:04:41;67.32;;;30.33;;
70426;SDS011;57872;55.432;37.248;2024-03-02T06:09:42;68.25;;;29.00;;
70426;SDS011;57872;55.432;37.248;2024-03-02T06:14:45;85.40;;;38.70;;
70426;SDS011;57872;55.432;37.248;2024-03-02T06:19:46;73.85;;;33.88;;
70426;SDS011;57872;55.432;37.248;2024-03-02T06:24:48;73.15;;;34.75;;
70426;SDS011;57872;55.432;37.248;2024-03-02T06:29:50;75.32;;;34.25;;
70426;SDS011;57872;55.432;37.248;2024-03-02T06:34:55;71.03;;;34.95;;
70426;SDS011;57872;55.432;37.248;2024-03-02T06:39:56;74.95;;;33.85;;
70426;SDS011;57872;55.432;37.248;2024-03-02T06:44:58;75.93;;;33.60;;
70426;SDS011;57872;55.432;37.248;2024-03-02T06:49:59;69.63;;;32.05;;
70426;SDS011;57872;55.432;37.248;2024-03-02T06:55:09;69.97;;;32.55;;
70426;SDS011;57872;55.432;37.248;2024-03-02T07:00:19;71.22;;;32.92;;
70426;SDS011;57872;55.432;37.248;2024-03-02T07:05:29;76.25;;;34.08;;
70426;SDS011;57872;55.432;37.248;2024-03-02T07:10:42;73.93;;;36.00;;
70426;SDS011;57872;55.432;37.248;2024-03-02T07:15:45;69.25;;;33.00;;
70426;SDS011;57872;55.432;37.248;2024-03-02T07:21:25;69.20;;;33.08;;
70426;SDS011;57872;55.432;37.248;2024-03-02T07:26:46;67.93;;;32.33;;
70426;SDS011;57872;55.432;37.248;2024-03-02T07:31:47;67.78;;;31.45;;
70426;SDS011;57872;55.432;37.248;2024-03-02T07:36:48;70.22;;;32.92;;
70426;SDS011;57872;55.432;37.248;2024-03-02T07:41:50;67.30;;;31.63;;
70426;SDS011;57872;55.432;37.248;2024-03-02T07:46:51;67.05;;;31.95;;
70426;SDS011;57872;55.432;37.248;2024-03-02T07:51:53;67.35;;;32.55;;
70426;SDS011;57872;55.432;37.248;2024-03-02T07:56:56;68.38;;;31.88;;
70426;SDS011;57872;55.432;37.248;2024-03-02T08:01:58;68.85;;;31.65;;
70426;SDS011;57872;55.432;37.248;2024-03-02T08:07:00;64.03;;;32.88;;
70426;SDS011;57872;55.432;37.248;2024-03-02T08:12:01;64.13;;;29.80;;
70426;SDS011;57872;55.432;37.248;2024-03-02T08:17:04;60.90;;;29.92;;
70426;SDS011;57872;55.432;37.248;2024-03-02T08:22:12;61.20;;;28.80;;
70426;SDS011;57872;55.432;37.248;2024-03-02T08:27:14;58.00;;;29.50;;
70426;SDS011;57872;55.432;37.248;2024-03-02T08:32:15;58.53;;;28.27;;
70426;SDS011;57872;55.432;37.248;2024-03-02T08:37:18;56.85;;;27.20;;
70426;SDS011;57872;55.432;37.248;2024-03-02T08:42:19;48.08;;;25.40;;
70426;SDS011;57872;55.432;37.248;2024-03-02T08:47:21;51.17;;;26.90;;
70426;SDS011;57872;55.432;37.248;2024-03-02T08:52:22;58.25;;;27.48;;
70426;SDS011;57872;55.432;37.248;2024-03-02T08:57:27;49.20;;;25.00;;
70426;SDS011;57872;55.432;37.248;2024-03-02T09:02:32;52.15;;;26.92;;
70426;SDS011;57872;55.432;37.248;2024-03-02T09:13:05;51.78;;;25.80;;
70426;SDS011;57872;55.432;37.248;2024-03-02T09:18:21;52.80;;;27.83;;
70426;SDS011;57872;55.432;37.248;2024-03-02T09:23:30;56.72;;;31.02;;
70426;SDS011;57872;55.432;37.248;2024-03-02T09:28:35;53.80;;;25.92;;
70426;SDS011;57872;55.432;37.248;2024-03-02T09:33:45;51.55;;;26.83;;
70426;SDS011;57872;55.432;37.248;2024-03-02T09:38:47;57.90;;;28.27;;
70426;SDS011;57872;55.432;37.248;2024-03-02T09:43:48;50.47;;;25.83;;
70426;SDS011;57872;55.432;37.248;2024-03-02T09:48:56;50.30;;;24.50;;
70426;SDS011;57872;55.432;37.248;2024-03-02T09:54:10;47.45;;;23.08;;
70426;SDS011;57872;55.432;37.248;2024-03-02T09:59:19;47.53;;;23.77;;
70426;SDS011;57872;55.432;37.248;2024-03-02T10:04:37;46.47;;;21.95;;
70426;SDS011;57872;55.432;37.248;2024-03-02T10:09:48;42.75;;;19.35;;
70426;SDS011;57872;55.432;37.248;2024-03-02T10:14:52;40.70;;;19.73;;
70426;SDS011;57872;55.432;37.248;2024-03-02T10:20:22;32.55;;;15.88;;
70426;SDS011;57872;55.432;37.248;2024-03-02T10:30:41;40.90;;;20.45;;
70426;SDS011;57872;55.432;37.248;2024-03-02T10:35:51;34.70;;;17.30;;
70426;SDS011;57872;55.432;37.248;2024-03-02T10:40:58;30.98;;;16.20;;
70426;SDS011;57872;55.432;37.248;2024-03-02T10:46:04;36.55;;;16.35;;
70426;SDS011;57872;55.432;37.248;2024-03-02T10:51:07;36.05;;;15.88;;
70426;SDS011;57872;55.432;37.248;2024-03-02T10:56:24;24.70;;;12.65;;
70426;SDS011;57872;55.432;37.248;2024-03-02T11:01:35;28.77;;;13.30;;
70426;SDS011;57872;55.432;37.248;2024-03-02T11:06:47;27.80;;;13.43;;
70426;SDS011;57872;55.432;37.248;2024-03-02T11:11:52;29.77;;;11.98;;
70426;SDS011;57872;55.432;37.248;2024-03-02T11:16:57;26.60;;;12.30;;
70426;SDS011;57872;55.432;37.248;2024-03-02T11:22:01;24.48;;;12.88;;
70426;SDS011;57872;55.432;37.248;2024-03-02T11:27:04;24.33;;;12.45;;
70426;SDS011;57872;55.432;37.248;2024-03-02T11:32:13;27.88;;;13.07;;
70426;SDS011;57872;55.432;37.248;2024-03-02T11:37:19;26.58;;;11.85;;
70426;SDS011;57872;55.432;37.248;2024-03-02T11:42:39;26.90;;;12.52;;
70426;SDS011;57872;55.432;37.248;2024-03-02T11:47:41;29.02;;;12.20;;
70426;SDS011;57872;55.432;37.248;2024-03-02T11:52:47;24.30;;;12.15;;
70426;SDS011;57872;55.432;37.248;2024-03-02T11:57:48;26.60;;;13.05;;
70426;SDS011;57872;55.432;37.248;2024-03-02T12:03:00;26.77;;;13.43;;
70426;SDS011;57872;55.432;37.248;2024-03-02T12:08:02;26.90;;;12.93;;
70426;SDS011;57872;55.432;37.248;2024-03-02T12:13:06;24.98;;;12.35;;
70426;SDS011;57872;55.432;37.248;2024-03-02T12:18:08;30.13;;;13.47;;
70426;SDS011;57872;55.432;37.248;2024-03-02T12:23:09;27.77;;;14.05;;
70426;SDS011;57872;55.432;37.248;2024-03-02T12:28:10;26.83;;;13.85;;
70426;SDS011;57872;55.432;37.248;2024-03-02T12:33:12;25.65;;;13.65;;
70426;SDS011;57872;55.432;37.248;2024-03-02T12:38:14;31.00;;;15.38;;
70426;SDS011;57872;55.432;37.248;2024-03-02T12:43:15;29.48;;;15.77;;
70426;SDS011;57872;55.432;37.248;2024-03-02T12:48:17;30.83;;;15.52;;
70426;SDS011;57872;55.432;37.248;2024-03-02T12:53:18;29.38;;;15.48;;
70426;SDS011;57872;55.432;37.248;2024-03-02T12:58:22;33.13;;;17.80;;
70426;SDS011;57872;55.432;37.248;2024-03-02T13:03:24;28.75;;;15.98;;
70426;SDS011;57872;55.432;37.248;2024-03-02T13:08:29;37.05;;;16.08;;
70426;SDS011;57872;55.432;37.248;2024-03-02T13:13:30;58.90;;;29.70;;
70426;SDS011;57872;55.432;37.248;2024-03-02T13:18:33;37.65;;;16.25;;
70426;SDS011;57872;55.432;37.248;2024-03-02T13:23:36;33.35;;;17.30;;
70426;SDS011;57872;55.432;37.248;2024-03-02T13:28:37;32.13;;;15.27;;
70426;SDS011;57872;55.432;37.248;2024-03-02T13:33:39;26.67;;;14.43;;
70426;SDS011;57872;55.432;37.248;2024-03-02T13:38:40;36.25;;;17.50;;
70426;SDS011;57872;55.432;37.248;2024-03-02T13:43:41;38.72;;;19.90;;
70426;SDS011;57872;55.432;37.248;2024-03-02T13:53:46;39.45;;;19.27;;
70426;SDS011;57872;55.432;37.248;2024-03-02T13:58:47;37.58;;;21.13;;
70426;SDS011;57872;55.432;37.248;2024-03-02T14:03:49;48.75;;;22.85;;
70426;SDS011;57872;55.432;37.248;2024-03-02T14:08:50;38.10;;;20.73;;
70426;SDS011;57872;55.432;37.248;2024-03-02T14:13:52;42.72;;;21.33;;
70426;SDS011;57872;55.432;37.248;2024-03-02T14:18:55;39.25;;;20.77;;
70426;SDS011;57872;55.432;37.248;2024-03-02T14:23:56;38.28;;;20.73;;
70426;SDS011;57872;55.432;37.248;2024-03-02T14:28:58;40.38;;;20.00;;
70426;SDS011;57872;55.432;37.248;2024-03-02T14:33:59;39.50;;;20.80;;
70426;SDS011;57872;55.432;37.248;2024-03-02T14:39:01;39.63;;;20.80;;
70426;SDS011;57872;55.432;37.248;2024-03-02T14:44:05;53.22;;;23.05;;
70426;SDS011;57872;55.432;37.248;2024-03-02T14:49:06;43.92;;;24.38;;
70426;SDS011;57872;55.432;37.248;2024-03-02T14:54:16;42.00;;;20.77;;
70426;SDS011;57872;55.432;37.248;2024-03-02T14:59:18;39.40;;;20.83;;
70426;SDS011;57872;55.432;37.248;2024-03-02T15:04:19;40.70;;;21.45;;
70426;SDS011;57872;55.432;37.248;2024-03-02T15:09:21;41.33;;;21.15;;
70426;SDS011;57872;55.432;37.248;2024-03-02T15:14:22;43.35;;;20.25;;
70426;SDS011;57872;55.432;37.248;2024-03-02T15:19:24;42.47;;;21.63;;
70426;SDS011;57872;55.432;37.248;2024-03-02T15:24:25;40.53;;;20.85;;
70426;SDS011;57872;55.432;37.248;2024-03-02T15:29:27;41.72;;;20.45;;
70426;SDS011;57872;55.432;37.248;2024-03-02T15:34:30;37.43;;;21.03;;
70426;SDS011;57872;55.432;37.248;2024-03-02T15:39:32;44.30;;;21.38;;
70426;SDS011;57872;55.432;37.248;2024-03-02T15:44:33;44.53;;;21.10;;
70426;SDS011;57872;55.432;37.248;2024-03-02T15:49:35;44.03;;;21.48;;
70426;SDS011;57872;55.432;37.248;2024-03-02T15:54:36;46.45;;;22.20;;
70426;SDS011;57872;55.432;37.248;2024-03-02T15:59:37;47.00;;;20.83;;
70426;SDS011;57872;55.432;37.248;2024-03-02T16:04:41;46.70;;;22.13;;
70426;SDS011;57872;55.432;37.248;2024-03-02T16:09:42;44.90;;;22.15;;
70426;SDS011;57872;55.432;37.248;2024-03-02T16:15:01;48.03;;;21.80;;
70426;SDS011;57872;55.432;37.248;2024-03-02T16:20:03;63.40;;;28.57;;
70426;SDS011;57872;55.432;37.248;2024-03-02T16:25:06;50.78;;;23.52;;
70426;SDS011;57872;55.432;37.248;2024-03-02T16:30:08;44.38;;;22.63;;
70426;SDS011;57872;55.432;37.248;2024-03-02T16:35:09;51.63;;;23.20;;
70426;SDS011;57872;55.432;37.248;2024-03-02T16:40:29;53.23;;;24.70;;
70426;SDS011;57872;55.432;37.248;2024-03-02T16:45:50;52.10;;;24.93;;
70426;SDS011;57872;55.432;37.248;2024-03-02T16:50:51;52.23;;;24.83;;
70426;SDS011;57872;55.432;37.248;2024-03-02T16:55:52;56.27;;;25.77;;
70426;SDS011;57872;55.432;37.248;2024-03-02T17:00:53;51.73;;;25.27;;
70426;SDS011;57872;55.432;37.248;2024-03-02T17:05:54;52.77;;;26.10;;
70426;SDS011;57872;55.432;37.248;2024-03-02T17:10:56;101.13;;;48.00;;
70426;SDS011;57872;55.432;37.248;2024-03-02T17:15:57;55.20;;;26.17;;
70426;SDS011;57872;55.432;37.248;2024-03-02T17:20:58;60.70;;;27.43;;
70426;SDS011;57872;55.432;37.248;2024-03-02T17:25:59;66.90;;;29.33;;
70426;SDS011;57872;55.432;37.248;2024-03-02T17:31:00;57.60;;;27.43;;
70426;SDS011;57872;55.432;37.248;2024-03-02T17:36:04;60.05;;;26.75;;
70426;SDS011;57872;55.432;37.248;2024-03-02T17:41:05;55.40;;;26.93;;
70426;SDS011;57872;55.432;37.248;2024-03-02T17:46:07;54.17;;;26.53;;
70426;SDS011;57872;55.432;37.248;2024-03-02T17:51:11;56.35;;;30.00;;
70426;SDS011;57872;55.432;37.248;2024-03-02T17:56:12;54.80;;;25.97;;
70426;SDS011;57872;55.432;37.248;2024-03-02T18:01:13;51.47;;;26.53;;
70426;SDS011;57872;55.432;37.248;2024-03-02T18:06:15;55.70;;;27.00;;
70426;SDS011;57872;55.432;37.248;2024-03-02T18:11:19;63.63;;;29.02;;
70426;SDS011;57872;55.432;37.248;2024-03-02T18:16:23;56.10;;;26.93;;
70426;SDS011;57872;55.432;37.248;2024-03-02T18:21:25;55.60;;;27.10;;
70426;SDS011;57872;55.432;37.248;2024-03-02T18:26:27;58.67;;;26.63;;
70426;SDS011;57872;55.432;37.248;2024-03-02T18:31:30;54.77;;;26.37;;
70426;SDS011;57872;55.432;37.248;2024-03-02T18:36:31;55.97;;;27.00;;
70426;SDS011;57872;55.432;37.248;2024-03-02T18:41:35;61.92;;;25.58;;
70426;SDS011;57872;55.432;37.248;2024-03-02T18:46:36;60.10;;;27.17;;
70426;SDS011;57872;55.432;37.248;2024-03-02T18:51:38;57.30;;;25.77;;
70426;SDS011;57872;55.432;37.248;2024-03-02T18:56:42;57.67;;;26.30;;
70426;SDS011;57872;55.432;37.248;2024-03-02T19:01:43;60.47;;;29.40;;
70426;SDS011;57872;55.432;37.248;2024-03-02T19:06:44;62.57;;;29.07;;
70426;SDS011;57872;55.432;37.248;2024-03-02T19:11:46;54.30;;;25.80;;
70426;SDS011;57872;55.432;37.248;2024-03-02T19:16:46;48.90;;;24.90;;
70426;SDS011;57872;55.432;37.248;2024-03-02T19:21:47;51.23;;;26.07;;
70426;SDS011;57872;55.432;37.248;2024-03-02T19:26:49;57.30;;;25.33;;
70426;SDS011;57872;55.432;37.248;2024-03-02T19:31:50;59.20;;;25.43;;
70426;SDS011;57872;55.432;37.248;2024-03-02T19:36:54;56.13;;;25.00;;
70426;SDS011;57872;55.432;37.248;2024-03-02T19:41:57;54.05;;;23.60;;
70426;SDS011;57872;55.432;37.248;2024-03-02T19:47:01;57.55;;;25.88;;
70426;SDS011;57872;55.432;37.248;2024-03-02T19:52:02;47.27;;;22.80;;
70426;SDS011;57872;55.432;37.248;2024-03-02T19:57:04;45.70;;;23.47;;
70426;SDS011;57872;55.432;37.248;2024-03-02T20:02:05;49.77;;;23.13;;
70426;SDS011;57872;55.432;37.248;2024-03-02T20:07:14;45.53;;;22.73;;
70426;SDS011;57872;55.432;37.248;2024-03-02T20:12:21;51.47;;;22.93;;
70426;SDS011;57872;55.432;37.248;2024-03-02T20:17:22;48.07;;;23.23;;
70426;SDS011;57872;55.432;37.248;2024-03-02T20:22:23;53.70;;;24.47;;
70426;SDS011;57872;55.432;37.248;2024-03-02T20:27:24;55.47;;;22.30;;
70426;SDS011;57872;55.432;37.248;2024-03-02T20:32:25;46.57;;;23.67;;
70426;SDS011;57872;55.432;37.248;2024-03-02T20:37:29;51.13;;;23.27;;
70426;SDS011;57872;55.432;37.248;2024-03-02T20:42:37;43.53;;;22.00;;
70426;SDS011;57872;55.432;37.248;2024-03-02T20:47:47;47.33;;;22.03;;
70426;SDS011;57872;55.432;37.248;2024-03-02T20:52:48;45.53;;;22.50;;
70426;SDS011;57872;55.432;37.248;2024-03-02T20:57:49;49.23;;;22.23;;
70426;SDS011;57872;55.432;37.248;2024-03-02T21:02:56;46.00;;;22.33;;
70426;SDS011;57872;55.432;37.248;2024-03-02T21:07:58;42.63;;;20.93;;
70426;SDS011;57872;55.432;37.248;2024-03-02T21:18:50;46.17;;;21.03;;
70426;SDS011;57872;55.432;37.248;2024-03-02T21:24:00;44.20;;;21.80;;
70426;SDS011;57872;55.432;37.248;2024-03-02T21:29:01;44.50;;;21.97;;
70426;SDS011;57872;55.432;37.248;2024-03-02T21:34:04;50.90;;;22.33;;
70426;SDS011;57872;55.432;37.248;2024-03-02T21:39:06;48.03;;;23.37;;
70426;SDS011;57872;55.432;37.248;2024-03-02T21:44:08;46.07;;;22.03;;
70426;SDS011;57872;55.432;37.248;2024-03-02T21:49:09;43.53;;;21.63;;
70426;SDS011;57872;55.432;37.248;2024-03-02T21:54:11;53.43;;;24.40;;
70426;SDS011;57872;55.432;37.248;2024-03-02T21:59:12;47.87;;;22.00;;
70426;SDS011;57872;55.432;37.248;2024-03-02T22:04:13;51.93;;;22.53;;
70426;SDS011;57872;55.432;37.248;2024-03-02T22:09:14;49.67;;;21.60;;
70426;SDS011;57872;55.432;37.248;2024-03-02T22:14:18;45.23;;;22.07;;
70426;SDS011;57872;55.432;37.248;2024-03-02T22:19:20;44.40;;;20.60;;
70426;SDS011;57872;55.432;37.248;2024-03-02T22:24:21;51.83;;;20.90;;
70426;SDS011;57872;55.432;37.248;2024-03-02T22:29:32;49.93;;;21.53;;
70426;SDS011;57872;55.432;37.248;2024-03-02T22:34:34;50.47;;;23.83;;
70426;SDS011;57872;55.432;37.248;2024-03-02T22:40:04;45.23;;;21.63;;
70426;SDS011;57872;55.432;37.248;2024-03-02T22:46:01;46.23;;;21.93;;
70426;SDS011;57872;55.432;37.248;2024-03-02T22:51:46;47.63;;;22.70;;
70426;SDS011;57872;55.432;37.248;2024-03-02T22:56:52;49.90;;;21.50;;
70426;SDS011;57872;55.432;37.248;2024-03-02T23:08:22;48.90;;;23.03;;
70426;SDS011;57872;55.432;37.248;2024-03-02T23:13:23;53.33;;;22.70;;
70426;SDS011;57872;55.432;37.248;2024-03-02T23:18:27;59.50;;;24.50;;
70426;SDS011;57872;55.432;37.248;2024-03-02T23:23:28;52.50;;;23.13;;
70426;SDS011;57872;55.432;37.248;2024-03-02T23:28:29;58.47;;;25.40;;
70426;SDS011;57872;55.432;37.248;2024-03-02T23:33:30;56.40;;;24.83;;
70426;SDS011;57872;55.432;37.248;2024-03-02T23:38:31;49.63;;;24.07;;
70426;SDS011;57872;55.432;37.248;2024-03-02T23:43:40;60.77;;;27.60;;
70426;SDS011;57872;55.432;37.248;2024-03-02T23:48:42;54.73;;;25.97;;
70426;SDS011;57872;55.432;37.248;2024-03-02T23:53:46;63.77;;;27.93;;
70426;SDS011;57872;55.432;37.248;2024-03-02T23:58:54;55.53;;;26.50;;
